sensor_id;sensor_type;location;lat;lon;timestamp;P1;durP1;ratioP1;P2;durP2;ratioP2
72085;SDS011;64750;52.134;5.424;2023-04-15T00:01:44;5.80;;;3.95;;
72085;SDS011;64750;52.134;5.424;2023-04-15T00:04:10;4.78;;;3.70;;
72085;SDS011;64750;52.134;5.424;2023-04-15T00:06:37;4.57;;;4.18;;
72085;SDS011;64750;52.134;5.424;2023-04-15T00:09:04;8.27;;;4.10;;
72085;SDS011;64750;52.134;5.424;2023-04-15T00:11:31;5.40;;;4.00;;
72085;SDS011;64750;52.134;5.424;2023-04-15T00:13:57;8.40;;;4.40;;
72085;SDS011;64750;52.134;5.424;2023-04-15T00:16:24;4.28;;;3.90;;
72085;SDS011;64750;52.134;5.424;2023-04-15T00:18:50;5.63;;;4.10;;
72085;SDS011;64750;52.134;5.424;2023-04-15T00:21:17;4.73;;;4.13;;
72085;SDS011;64750;52.134;5.424;2023-04-15T00:23:43;5.25;;;4.40;;
72085;SDS011;64750;52.134;5.424;2023-04-15T00:26:10;4.22;;;3.83;;
72085;SDS011;64750;52.134;5.424;2023-04-15T00:28:37;6.68;;;4.00;;
72085;SDS011;64750;52.134;5.424;2023-04-15T00:31:04;4.60;;;3.72;;
72085;SDS011;64750;52.134;5.424;2023-04-15T00:33:30;4.40;;;3.53;;
72085;SDS011;64750;52.134;5.424;2023-04-15T00:35:57;7.93;;;4.07;;
72085;SDS011;64750;52.134;5.424;2023-04-15T00:38:24;5.75;;;4.30;;
72085;SDS011;64750;52.134;5.424;2023-04-15T00:40:50;8.10;;;3.97;;
72085;SDS011;64750;52.134;5.424;2023-04-15T00:43:18;4.55;;;3.92;;
72085;SDS011;64750;52.134;5.424;2023-04-15T00:45:45;7.57;;;4.33;;
72085;SDS011;64750;52.134;5.424;2023-04-15T00:48:12;5.32;;;4.30;;
72085;SDS011;64750;52.134;5.424;2023-04-15T00:50:39;5.20;;;4.07;;
72085;SDS011;64750;52.134;5.424;2023-04-15T00:53:05;6.20;;;4.35;;
72085;SDS011;64750;52.134;5.424;2023-04-15T00:55:32;4.93;;;4.43;;
72085;SDS011;64750;52.134;5.424;2023-04-15T00:57:58;4.70;;;4.00;;
72085;SDS011;64750;52.134;5.424;2023-04-15T01:00:25;5.28;;;4.45;;
72085;SDS011;64750;52.134;5.424;2023-04-15T01:02:52;6.22;;;4.07;;
72085;SDS011;64750;52.134;5.424;2023-04-15T01:05:19;5.50;;;4.38;;
72085;SDS011;64750;52.134;5.424;2023-04-15T01:07:45;5.25;;;4.72;;
72085;SDS011;64750;52.134;5.424;2023-04-15T01:10:13;4.70;;;4.37;;
72085;SDS011;64750;52.134;5.424;2023-04-15T01:12:39;4.65;;;4.25;;
72085;SDS011;64750;52.134;5.424;2023-04-15T01:15:06;6.60;;;4.10;;
72085;SDS011;64750;52.134;5.424;2023-04-15T01:17:33;6.05;;;4.63;;
72085;SDS011;64750;52.134;5.424;2023-04-15T01:19:59;7.45;;;4.60;;
72085;SDS011;64750;52.134;5.424;2023-04-15T01:22:26;6.17;;;4.40;;
72085;SDS011;64750;52.134;5.424;2023-04-15T01:24:55;4.90;;;4.28;;
72085;SDS011;64750;52.134;5.424;2023-04-15T01:27:27;4.60;;;4.18;;
72085;SDS011;64750;52.134;5.424;2023-04-15T01:29:53;9.73;;;4.57;;
72085;SDS011;64750;52.134;5.424;2023-04-15T01:32:20;6.03;;;4.65;;
72085;SDS011;64750;52.134;5.424;2023-04-15T01:34:46;5.27;;;4.30;;
72085;SDS011;64750;52.134;5.424;2023-04-15T01:37:13;6.35;;;4.20;;
72085;SDS011;64750;52.134;5.424;2023-04-15T01:39:39;6.03;;;4.05;;
72085;SDS011;64750;52.134;5.424;2023-04-15T01:42:06;4.65;;;4.25;;
72085;SDS011;64750;52.134;5.424;2023-04-15T01:44:32;4.38;;;3.90;;
72085;SDS011;64750;52.134;5.424;2023-04-15T01:46:59;4.43;;;3.97;;
72085;SDS011;64750;52.134;5.424;2023-04-15T01:49:26;4.57;;;4.18;;
72085;SDS011;64750;52.134;5.424;2023-04-15T01:51:52;5.65;;;4.00;;
72085;SDS011;64750;52.134;5.424;2023-04-15T01:54:19;11.57;;;4.28;;
72085;SDS011;64750;52.134;5.424;2023-04-15T01:56:45;4.20;;;3.80;;
72085;SDS011;64750;52.134;5.424;2023-04-15T01:59:12;6.20;;;3.60;;
72085;SDS011;64750;52.134;5.424;2023-04-15T02:01:38;4.28;;;3.85;;
72085;SDS011;64750;52.134;5.424;2023-04-15T02:04:06;4.90;;;4.10;;
72085;SDS011;64750;52.134;5.424;2023-04-15T02:06:33;7.60;;;3.85;;
72085;SDS011;64750;52.134;5.424;2023-04-15T02:08:59;9.32;;;4.03;;
72085;SDS011;64750;52.134;5.424;2023-04-15T02:11:26;6.03;;;3.80;;
72085;SDS011;64750;52.134;5.424;2023-04-15T02:13:52;5.85;;;3.90;;
72085;SDS011;64750;52.134;5.424;2023-04-15T02:16:19;4.45;;;3.72;;
72085;SDS011;64750;52.134;5.424;2023-04-15T02:18:45;5.13;;;4.30;;
72085;SDS011;64750;52.134;5.424;2023-04-15T02:21:12;7.30;;;3.80;;
72085;SDS011;64750;52.134;5.424;2023-04-15T02:23:39;4.33;;;3.93;;
72085;SDS011;64750;52.134;5.424;2023-04-15T02:26:06;6.15;;;3.83;;
72085;SDS011;64750;52.134;5.424;2023-04-15T02:28:33;5.22;;;4.22;;
72085;SDS011;64750;52.134;5.424;2023-04-15T02:30:59;10.35;;;4.30;;
72085;SDS011;64750;52.134;5.424;2023-04-15T02:33:27;4.38;;;3.67;;
72085;SDS011;64750;52.134;5.424;2023-04-15T02:35:53;4.47;;;4.03;;
72085;SDS011;64750;52.134;5.424;2023-04-15T02:38:20;4.65;;;4.22;;
72085;SDS011;64750;52.134;5.424;2023-04-15T02:40:46;4.03;;;3.67;;
72085;SDS011;64750;52.134;5.424;2023-04-15T02:43:14;4.30;;;3.50;;
72085;SDS011;64750;52.134;5.424;2023-04-15T02:45:42;4.72;;;4.00;;
72085;SDS011;64750;52.134;5.424;2023-04-15T02:48:09;5.30;;;3.83;;
72085;SDS011;64750;52.134;5.424;2023-04-15T02:50:36;4.10;;;3.70;;
72085;SDS011;64750;52.134;5.424;2023-04-15T02:53:05;5.57;;;3.78;;
72085;SDS011;64750;52.134;5.424;2023-04-15T02:55:32;5.13;;;3.92;;
72085;SDS011;64750;52.134;5.424;2023-04-15T02:57:58;4.53;;;4.15;;
72085;SDS011;64750;52.134;5.424;2023-04-15T03:00:26;3.67;;;3.37;;
72085;SDS011;64750;52.134;5.424;2023-04-15T03:02:57;3.92;;;3.60;;
72085;SDS011;64750;52.134;5.424;2023-04-15T03:05:27;4.28;;;3.63;;
72085;SDS011;64750;52.134;5.424;2023-04-15T03:07:53;4.40;;;3.85;;
72085;SDS011;64750;52.134;5.424;2023-04-15T03:10:20;5.05;;;3.95;;
72085;SDS011;64750;52.134;5.424;2023-04-15T03:12:47;4.70;;;3.63;;
72085;SDS011;64750;52.134;5.424;2023-04-15T03:15:14;3.70;;;3.40;;
72085;SDS011;64750;52.134;5.424;2023-04-15T03:17:40;4.40;;;4.00;;
72085;SDS011;64750;52.134;5.424;2023-04-15T03:20:07;5.55;;;3.95;;
72085;SDS011;64750;52.134;5.424;2023-04-15T03:22:34;4.85;;;4.45;;
72085;SDS011;64750;52.134;5.424;2023-04-15T03:25:01;5.50;;;3.60;;
72085;SDS011;64750;52.134;5.424;2023-04-15T03:27:27;5.10;;;3.60;;
72085;SDS011;64750;52.134;5.424;2023-04-15T03:29:53;4.90;;;3.80;;
72085;SDS011;64750;52.134;5.424;2023-04-15T03:32:21;4.70;;;3.78;;
72085;SDS011;64750;52.134;5.424;2023-04-15T03:34:48;4.35;;;3.97;;
72085;SDS011;64750;52.134;5.424;2023-04-15T03:37:14;7.00;;;3.97;;
72085;SDS011;64750;52.134;5.424;2023-04-15T03:39:41;3.90;;;3.60;;
72085;SDS011;64750;52.134;5.424;2023-04-15T03:42:07;4.30;;;3.90;;
72085;SDS011;64750;52.134;5.424;2023-04-15T03:44:33;3.85;;;3.55;;
72085;SDS011;64750;52.134;5.424;2023-04-15T03:47:00;4.80;;;3.67;;
72085;SDS011;64750;52.134;5.424;2023-04-15T03:49:26;5.37;;;4.43;;
72085;SDS011;64750;52.134;5.424;2023-04-15T03:51:53;5.60;;;3.88;;
72085;SDS011;64750;52.134;5.424;2023-04-15T03:54:19;4.03;;;3.47;;
72085;SDS011;64750;52.134;5.424;2023-04-15T03:56:45;4.47;;;4.07;;
72085;SDS011;64750;52.134;5.424;2023-04-15T03:59:12;4.20;;;3.65;;
72085;SDS011;64750;52.134;5.424;2023-04-15T04:01:38;4.40;;;4.00;;
72085;SDS011;64750;52.134;5.424;2023-04-15T04:04:05;4.03;;;3.65;;
72085;SDS011;64750;52.134;5.424;2023-04-15T04:06:32;4.55;;;4.07;;
72085;SDS011;64750;52.134;5.424;2023-04-15T04:08:58;5.95;;;4.10;;
72085;SDS011;64750;52.134;5.424;2023-04-15T04:11:25;4.20;;;3.90;;
72085;SDS011;64750;52.134;5.424;2023-04-15T04:13:51;8.13;;;3.90;;
72085;SDS011;64750;52.134;5.424;2023-04-15T04:16:18;4.72;;;3.72;;
72085;SDS011;64750;52.134;5.424;2023-04-15T04:18:45;5.00;;;4.15;;
72085;SDS011;64750;52.134;5.424;2023-04-15T04:21:11;4.75;;;4.28;;
72085;SDS011;64750;52.134;5.424;2023-04-15T04:23:38;4.45;;;3.88;;
72085;SDS011;64750;52.134;5.424;2023-04-15T04:26:04;4.00;;;3.70;;
72085;SDS011;64750;52.134;5.424;2023-04-15T04:28:31;7.47;;;4.40;;
72085;SDS011;64750;52.134;5.424;2023-04-15T04:30:57;6.85;;;4.05;;
72085;SDS011;64750;52.134;5.424;2023-04-15T04:33:24;4.45;;;4.05;;
72085;SDS011;64750;52.134;5.424;2023-04-15T04:35:51;9.32;;;4.50;;
72085;SDS011;64750;52.134;5.424;2023-04-15T04:38:17;4.77;;;4.37;;
72085;SDS011;64750;52.134;5.424;2023-04-15T04:40:43;5.00;;;4.60;;
72085;SDS011;64750;52.134;5.424;2023-04-15T04:43:10;4.72;;;4.22;;
72085;SDS011;64750;52.134;5.424;2023-04-15T04:45:36;4.70;;;4.18;;
72085;SDS011;64750;52.134;5.424;2023-04-15T04:48:03;8.18;;;4.85;;
72085;SDS011;64750;52.134;5.424;2023-04-15T04:50:32;6.87;;;4.20;;
72085;SDS011;64750;52.134;5.424;2023-04-15T04:52:59;4.97;;;4.53;;
72085;SDS011;64750;52.134;5.424;2023-04-15T04:55:26;4.90;;;4.45;;
72085;SDS011;64750;52.134;5.424;2023-04-15T04:57:52;4.30;;;3.90;;
72085;SDS011;64750;52.134;5.424;2023-04-15T05:00:19;4.18;;;3.88;;
72085;SDS011;64750;52.134;5.424;2023-04-15T05:02:45;6.63;;;4.40;;
72085;SDS011;64750;52.134;5.424;2023-04-15T05:05:12;5.43;;;4.53;;
72085;SDS011;64750;52.134;5.424;2023-04-15T05:07:38;7.18;;;4.28;;
72085;SDS011;64750;52.134;5.424;2023-04-15T05:10:05;6.05;;;4.30;;
72085;SDS011;64750;52.134;5.424;2023-04-15T05:12:32;5.30;;;4.43;;
72085;SDS011;64750;52.134;5.424;2023-04-15T05:14:59;8.03;;;5.13;;
72085;SDS011;64750;52.134;5.424;2023-04-15T05:17:26;6.32;;;4.28;;
72085;SDS011;64750;52.134;5.424;2023-04-15T05:19:52;6.18;;;5.20;;
72085;SDS011;64750;52.134;5.424;2023-04-15T05:22:19;5.97;;;4.68;;
72085;SDS011;64750;52.134;5.424;2023-04-15T05:24:45;5.20;;;4.63;;
72085;SDS011;64750;52.134;5.424;2023-04-15T05:27:12;5.83;;;4.90;;
72085;SDS011;64750;52.134;5.424;2023-04-15T05:29:38;6.68;;;5.13;;
72085;SDS011;64750;52.134;5.424;2023-04-15T05:32:05;5.53;;;5.03;;
72085;SDS011;64750;52.134;5.424;2023-04-15T05:34:31;5.40;;;4.90;;
72085;SDS011;64750;52.134;5.424;2023-04-15T05:36:58;6.70;;;4.97;;
72085;SDS011;64750;52.134;5.424;2023-04-15T05:39:24;5.93;;;4.97;;
72085;SDS011;64750;52.134;5.424;2023-04-15T05:41:51;5.97;;;5.47;;
72085;SDS011;64750;52.134;5.424;2023-04-15T05:44:18;5.63;;;5.10;;
72085;SDS011;64750;52.134;5.424;2023-04-15T05:46:44;6.03;;;4.97;;
72085;SDS011;64750;52.134;5.424;2023-04-15T05:49:11;7.68;;;4.88;;
72085;SDS011;64750;52.134;5.424;2023-04-15T05:51:37;5.63;;;4.77;;
72085;SDS011;64750;52.134;5.424;2023-04-15T05:54:04;5.28;;;4.78;;
72085;SDS011;64750;52.134;5.424;2023-04-15T05:56:30;7.70;;;4.85;;
72085;SDS011;64750;52.134;5.424;2023-04-15T05:58:57;5.70;;;5.20;;
72085;SDS011;64750;52.134;5.424;2023-04-15T06:01:25;6.85;;;4.90;;
72085;SDS011;64750;52.134;5.424;2023-04-15T06:03:51;5.63;;;5.23;;
72085;SDS011;64750;52.134;5.424;2023-04-15T06:06:18;9.25;;;5.10;;
72085;SDS011;64750;52.134;5.424;2023-04-15T06:08:45;7.90;;;5.22;;
72085;SDS011;64750;52.134;5.424;2023-04-15T06:11:12;6.68;;;5.03;;
72085;SDS011;64750;52.134;5.424;2023-04-15T06:13:38;5.82;;;5.18;;
72085;SDS011;64750;52.134;5.424;2023-04-15T06:16:05;6.23;;;5.60;;
72085;SDS011;64750;52.134;5.424;2023-04-15T06:18:32;6.50;;;5.00;;
72085;SDS011;64750;52.134;5.424;2023-04-15T06:20:58;7.78;;;5.35;;
72085;SDS011;64750;52.134;5.424;2023-04-15T06:23:24;5.82;;;4.97;;
72085;SDS011;64750;52.134;5.424;2023-04-15T06:25:53;6.90;;;6.10;;
72085;SDS011;64750;52.134;5.424;2023-04-15T06:28:19;9.33;;;6.33;;
72085;SDS011;64750;52.134;5.424;2023-04-15T06:30:46;8.85;;;7.13;;
72085;SDS011;64750;52.134;5.424;2023-04-15T06:33:12;9.93;;;7.70;;
72085;SDS011;64750;52.134;5.424;2023-04-15T06:35:38;11.68;;;7.93;;
72085;SDS011;64750;52.134;5.424;2023-04-15T06:38:05;12.93;;;8.82;;
72085;SDS011;64750;52.134;5.424;2023-04-15T06:40:32;10.20;;;8.07;;
72085;SDS011;64750;52.134;5.424;2023-04-15T06:42:58;9.70;;;7.43;;
72085;SDS011;64750;52.134;5.424;2023-04-15T06:45:25;7.65;;;6.85;;
72085;SDS011;64750;52.134;5.424;2023-04-15T06:47:51;7.30;;;6.60;;
72085;SDS011;64750;52.134;5.424;2023-04-15T06:50:18;8.38;;;6.95;;
72085;SDS011;64750;52.134;5.424;2023-04-15T06:52:44;6.27;;;5.63;;
72085;SDS011;64750;52.134;5.424;2023-04-15T06:55:11;6.65;;;6.05;;
72085;SDS011;64750;52.134;5.424;2023-04-15T06:57:37;6.55;;;5.88;;
72085;SDS011;64750;52.134;5.424;2023-04-15T07:00:04;9.93;;;6.28;;
72085;SDS011;64750;52.134;5.424;2023-04-15T07:02:31;9.52;;;5.90;;
72085;SDS011;64750;52.134;5.424;2023-04-15T07:04:57;6.93;;;6.00;;
72085;SDS011;64750;52.134;5.424;2023-04-15T07:07:24;6.75;;;5.90;;
72085;SDS011;64750;52.134;5.424;2023-04-15T07:09:50;7.40;;;6.28;;
72085;SDS011;64750;52.134;5.424;2023-04-15T07:12:18;6.82;;;6.22;;
72085;SDS011;64750;52.134;5.424;2023-04-15T07:14:45;6.70;;;6.03;;
72085;SDS011;64750;52.134;5.424;2023-04-15T07:17:12;6.90;;;5.73;;
72085;SDS011;64750;52.134;5.424;2023-04-15T07:19:39;6.55;;;5.95;;
72085;SDS011;64750;52.134;5.424;2023-04-15T07:22:05;6.43;;;5.93;;
72085;SDS011;64750;52.134;5.424;2023-04-15T07:24:32;7.95;;;6.70;;
72085;SDS011;64750;52.134;5.424;2023-04-15T07:26:59;7.50;;;6.65;;
72085;SDS011;64750;52.134;5.424;2023-04-15T07:29:26;7.90;;;6.87;;
72085;SDS011;64750;52.134;5.424;2023-04-15T07:31:53;6.70;;;6.07;;
72085;SDS011;64750;52.134;5.424;2023-04-15T07:34:19;8.88;;;7.00;;
72085;SDS011;64750;52.134;5.424;2023-04-15T07:36:46;6.78;;;6.18;;
72085;SDS011;64750;52.134;5.424;2023-04-15T07:39:15;7.15;;;6.55;;
72085;SDS011;64750;52.134;5.424;2023-04-15T07:41:42;8.60;;;6.70;;
72085;SDS011;64750;52.134;5.424;2023-04-15T07:44:09;7.47;;;6.88;;
72085;SDS011;64750;52.134;5.424;2023-04-15T07:46:35;6.50;;;5.80;;
72085;SDS011;64750;52.134;5.424;2023-04-15T07:49:03;5.20;;;4.80;;
72085;SDS011;64750;52.134;5.424;2023-04-15T07:51:30;6.25;;;5.65;;
72085;SDS011;64750;52.134;5.424;2023-04-15T07:53:57;5.90;;;5.23;;
72085;SDS011;64750;52.134;5.424;2023-04-15T07:56:24;5.65;;;4.63;;
72085;SDS011;64750;52.134;5.424;2023-04-15T07:58:51;4.80;;;4.40;;
72085;SDS011;64750;52.134;5.424;2023-04-15T08:01:18;7.35;;;5.03;;
72085;SDS011;64750;52.134;5.424;2023-04-15T08:03:44;5.13;;;4.55;;
72085;SDS011;64750;52.134;5.424;2023-04-15T08:06:11;4.77;;;3.87;;
72085;SDS011;64750;52.134;5.424;2023-04-15T08:08:37;4.95;;;4.50;;
72085;SDS011;64750;52.134;5.424;2023-04-15T08:11:03;5.22;;;4.32;;
72085;SDS011;64750;52.134;5.424;2023-04-15T08:13:30;3.95;;;3.65;;
72085;SDS011;64750;52.134;5.424;2023-04-15T08:16:13;4.47;;;4.00;;
72085;SDS011;64750;52.134;5.424;2023-04-15T08:18:43;4.73;;;3.73;;
72085;SDS011;64750;52.134;5.424;2023-04-15T08:21:10;4.53;;;4.15;;
72085;SDS011;64750;52.134;5.424;2023-04-15T08:23:37;7.13;;;3.83;;
72085;SDS011;64750;52.134;5.424;2023-04-15T08:26:04;5.15;;;3.45;;
72085;SDS011;64750;52.134;5.424;2023-04-15T08:28:30;3.92;;;3.63;;
72085;SDS011;64750;52.134;5.424;2023-04-15T08:30:57;3.90;;;3.60;;
72085;SDS011;64750;52.134;5.424;2023-04-15T08:33:24;3.55;;;3.25;;
72085;SDS011;64750;52.134;5.424;2023-04-15T08:35:50;3.83;;;3.53;;
72085;SDS011;64750;52.134;5.424;2023-04-15T08:38:17;3.47;;;3.28;;
72085;SDS011;64750;52.134;5.424;2023-04-15T08:40:44;4.55;;;3.58;;
72085;SDS011;64750;52.134;5.424;2023-04-15T08:43:26;3.77;;;3.23;;
72085;SDS011;64750;52.134;5.424;2023-04-15T08:45:55;3.25;;;2.95;;
72085;SDS011;64750;52.134;5.424;2023-04-15T08:48:25;5.20;;;3.60;;
72085;SDS011;64750;52.134;5.424;2023-04-15T08:50:54;3.70;;;3.40;;
72085;SDS011;64750;52.134;5.424;2023-04-15T08:53:20;3.65;;;3.35;;
72085;SDS011;64750;52.134;5.424;2023-04-15T08:55:49;4.83;;;3.80;;
72085;SDS011;64750;52.134;5.424;2023-04-15T08:58:18;5.20;;;3.45;;
72085;SDS011;64750;52.134;5.424;2023-04-15T09:00:44;4.60;;;3.60;;
72085;SDS011;64750;52.134;5.424;2023-04-15T09:03:11;3.15;;;2.95;;
72085;SDS011;64750;52.134;5.424;2023-04-15T09:05:38;4.45;;;3.72;;
72085;SDS011;64750;52.134;5.424;2023-04-15T09:08:05;3.90;;;3.60;;
72085;SDS011;64750;52.134;5.424;2023-04-15T09:10:32;3.50;;;3.08;;
72085;SDS011;64750;52.134;5.424;2023-04-15T09:12:59;3.33;;;3.00;;
72085;SDS011;64750;52.134;5.424;2023-04-15T09:15:27;3.13;;;2.92;;
72085;SDS011;64750;52.134;5.424;2023-04-15T09:17:55;3.97;;;3.47;;
72085;SDS011;64750;52.134;5.424;2023-04-15T09:20:24;4.53;;;3.00;;
72085;SDS011;64750;52.134;5.424;2023-04-15T09:22:50;6.35;;;2.88;;
72085;SDS011;64750;52.134;5.424;2023-04-15T09:27:47;6.82;;;2.85;;
72085;SDS011;64750;52.134;5.424;2023-04-15T09:30:14;4.20;;;3.80;;
72085;SDS011;64750;52.134;5.424;2023-04-15T09:32:51;3.00;;;2.70;;
72085;SDS011;64750;52.134;5.424;2023-04-15T09:35:22;2.83;;;2.60;;
72085;SDS011;64750;52.134;5.424;2023-04-15T09:37:51;2.65;;;2.45;;
72085;SDS011;64750;52.134;5.424;2023-04-15T09:40:38;3.35;;;3.05;;
72085;SDS011;64750;52.134;5.424;2023-04-15T09:43:08;7.72;;;4.85;;
72085;SDS011;64750;52.134;5.424;2023-04-15T09:45:38;3.27;;;2.97;;
72085;SDS011;64750;52.134;5.424;2023-04-15T09:48:16;5.78;;;5.18;;
72085;SDS011;64750;52.134;5.424;2023-04-15T09:50:47;4.35;;;3.30;;
72085;SDS011;64750;52.134;5.424;2023-04-15T09:53:15;4.22;;;3.72;;
72085;SDS011;64750;52.134;5.424;2023-04-15T09:55:44;7.60;;;4.70;;
72085;SDS011;64750;52.134;5.424;2023-04-15T09:58:18;4.97;;;4.13;;
72085;SDS011;64750;52.134;5.424;2023-04-15T10:00:46;2.78;;;2.58;;
72085;SDS011;64750;52.134;5.424;2023-04-15T10:03:17;5.43;;;3.08;;
72085;SDS011;64750;52.134;5.424;2023-04-15T10:05:54;5.28;;;4.68;;
72085;SDS011;64750;52.134;5.424;2023-04-15T10:08:23;3.90;;;2.95;;
72085;SDS011;64750;52.134;5.424;2023-04-15T10:10:51;3.93;;;3.57;;
72085;SDS011;64750;52.134;5.424;2023-04-15T10:13:18;2.85;;;2.40;;
72085;SDS011;64750;52.134;5.424;2023-04-15T10:15:51;3.05;;;2.70;;
72085;SDS011;64750;52.134;5.424;2023-04-15T10:18:21;2.88;;;2.42;;
72085;SDS011;64750;52.134;5.424;2023-04-15T10:20:52;3.30;;;2.38;;
72085;SDS011;64750;52.134;5.424;2023-04-15T10:23:19;2.93;;;2.60;;
72085;SDS011;64750;52.134;5.424;2023-04-15T10:25:47;2.45;;;2.25;;
72085;SDS011;64750;52.134;5.424;2023-04-15T10:28:16;5.60;;;2.90;;
72085;SDS011;64750;52.134;5.424;2023-04-15T10:30:43;2.97;;;2.67;;
72085;SDS011;64750;52.134;5.424;2023-04-15T10:33:09;2.38;;;2.17;;
72085;SDS011;64750;52.134;5.424;2023-04-15T10:35:36;3.90;;;3.60;;
72085;SDS011;64750;52.134;5.424;2023-04-15T10:41:15;3.22;;;2.92;;
72085;SDS011;64750;52.134;5.424;2023-04-15T10:43:48;3.85;;;2.55;;
72085;SDS011;64750;52.134;5.424;2023-04-15T10:46:24;4.97;;;2.40;;
72085;SDS011;64750;52.134;5.424;2023-04-15T10:49:13;2.57;;;2.37;;
72085;SDS011;64750;52.134;5.424;2023-04-15T10:51:43;2.38;;;2.17;;
72085;SDS011;64750;52.134;5.424;2023-04-15T10:57:36;5.40;;;2.85;;
72085;SDS011;64750;52.134;5.424;2023-04-15T11:02:39;3.13;;;2.40;;
72085;SDS011;64750;52.134;5.424;2023-04-15T11:05:08;3.38;;;1.50;;
72085;SDS011;64750;52.134;5.424;2023-04-15T11:12:53;2.08;;;1.77;;
72085;SDS011;64750;52.134;5.424;2023-04-15T11:20:40;2.30;;;1.98;;
72085;SDS011;64750;52.134;5.424;2023-04-15T11:23:10;2.35;;;1.42;;
72085;SDS011;64750;52.134;5.424;2023-04-15T11:25:40;1.70;;;1.60;;
72085;SDS011;64750;52.134;5.424;2023-04-15T11:28:08;3.80;;;2.03;;
72085;SDS011;64750;52.134;5.424;2023-04-15T11:30:35;1.60;;;1.50;;
72085;SDS011;64750;52.134;5.424;2023-04-15T11:33:03;1.80;;;1.67;;
72085;SDS011;64750;52.134;5.424;2023-04-15T11:35:31;2.35;;;1.80;;
72085;SDS011;64750;52.134;5.424;2023-04-15T11:38:01;7.53;;;1.80;;
72085;SDS011;64750;52.134;5.424;2023-04-15T11:40:33;1.67;;;1.57;;
72085;SDS011;64750;52.134;5.424;2023-04-15T11:48:18;2.00;;;1.52;;
72085;SDS011;64750;52.134;5.424;2023-04-15T11:50:51;2.00;;;1.80;;
72085;SDS011;64750;52.134;5.424;2023-04-15T11:53:19;2.60;;;1.63;;
72085;SDS011;64750;52.134;5.424;2023-04-15T11:55:46;2.20;;;2.00;;
72085;SDS011;64750;52.134;5.424;2023-04-15T11:58:17;1.80;;;1.70;;
72085;SDS011;64750;52.134;5.424;2023-04-15T12:00:57;2.03;;;1.83;;
72085;SDS011;64750;52.134;5.424;2023-04-15T12:03:26;2.40;;;1.45;;
72085;SDS011;64750;52.134;5.424;2023-04-15T12:11:29;1.48;;;1.38;;
72085;SDS011;64750;52.134;5.424;2023-04-15T12:16:30;2.30;;;1.20;;
72085;SDS011;64750;52.134;5.424;2023-04-15T12:19:06;1.75;;;1.40;;
72085;SDS011;64750;52.134;5.424;2023-04-15T12:21:35;2.13;;;1.20;;
72085;SDS011;64750;52.134;5.424;2023-04-15T12:24:04;3.13;;;1.23;;
72085;SDS011;64750;52.134;5.424;2023-04-15T12:26:45;1.38;;;1.02;;
72085;SDS011;64750;52.134;5.424;2023-04-15T12:29:14;1.20;;;1.10;;
72085;SDS011;64750;52.134;5.424;2023-04-15T12:31:52;1.40;;;1.30;;
72085;SDS011;64750;52.134;5.424;2023-04-15T12:34:30;3.47;;;1.30;;
72085;SDS011;64750;52.134;5.424;2023-04-15T12:36:58;3.38;;;1.30;;
72085;SDS011;64750;52.134;5.424;2023-04-15T12:39:28;1.25;;;1.15;;
72085;SDS011;64750;52.134;5.424;2023-04-15T12:41:57;5.22;;;1.42;;
72085;SDS011;64750;52.134;5.424;2023-04-15T12:44:25;2.17;;;1.15;;
72085;SDS011;64750;52.134;5.424;2023-04-15T12:46:52;1.33;;;1.23;;
72085;SDS011;64750;52.134;5.424;2023-04-15T12:49:19;2.80;;;1.33;;
72085;SDS011;64750;52.134;5.424;2023-04-15T12:51:51;1.58;;;1.00;;
72085;SDS011;64750;52.134;5.424;2023-04-15T12:54:18;1.50;;;1.25;;
72085;SDS011;64750;52.134;5.424;2023-04-15T12:56:45;4.25;;;1.13;;
72085;SDS011;64750;52.134;5.424;2023-04-15T12:59:13;2.03;;;1.13;;
72085;SDS011;64750;52.134;5.424;2023-04-15T13:01:41;1.20;;;1.00;;
72085;SDS011;64750;52.134;5.424;2023-04-15T13:04:07;1.02;;;0.60;;
72085;SDS011;64750;52.134;5.424;2023-04-15T13:06:34;2.95;;;1.00;;
72085;SDS011;64750;52.134;5.424;2023-04-15T13:09:02;1.90;;;1.10;;
72085;SDS011;64750;52.134;5.424;2023-04-15T13:11:31;1.20;;;1.10;;
72085;SDS011;64750;52.134;5.424;2023-04-15T13:14:06;1.00;;;1.00;;
72085;SDS011;64750;52.134;5.424;2023-04-15T13:16:34;4.55;;;1.33;;
72085;SDS011;64750;52.134;5.424;2023-04-15T13:19:01;2.55;;;1.30;;
72085;SDS011;64750;52.134;5.424;2023-04-15T13:21:29;4.15;;;1.30;;
72085;SDS011;64750;52.134;5.424;2023-04-15T13:24:00;1.90;;;0.97;;
72085;SDS011;64750;52.134;5.424;2023-04-15T13:26:27;1.95;;;0.90;;
72085;SDS011;64750;52.134;5.424;2023-04-15T13:28:53;2.03;;;0.80;;
72085;SDS011;64750;52.134;5.424;2023-04-15T13:31:19;4.05;;;1.25;;
72085;SDS011;64750;52.134;5.424;2023-04-15T13:33:46;3.10;;;1.25;;
72085;SDS011;64750;52.134;5.424;2023-04-15T13:36:12;0.97;;;0.60;;
72085;SDS011;64750;52.134;5.424;2023-04-15T13:38:39;2.53;;;1.30;;
72085;SDS011;64750;52.134;5.424;2023-04-15T13:41:05;3.58;;;1.10;;
72085;SDS011;64750;52.134;5.424;2023-04-15T13:43:31;2.22;;;1.00;;
72085;SDS011;64750;52.134;5.424;2023-04-15T13:45:59;1.20;;;0.90;;
72085;SDS011;64750;52.134;5.424;2023-04-15T13:48:25;1.37;;;1.07;;
72085;SDS011;64750;52.134;5.424;2023-04-15T13:50:52;2.03;;;0.80;;
72085;SDS011;64750;52.134;5.424;2023-04-15T13:53:18;2.05;;;1.35;;
72085;SDS011;64750;52.134;5.424;2023-04-15T13:55:45;3.55;;;0.90;;
72085;SDS011;64750;52.134;5.424;2023-04-15T13:58:11;1.63;;;0.88;;
72085;SDS011;64750;52.134;5.424;2023-04-15T14:00:37;2.20;;;0.70;;
72085;SDS011;64750;52.134;5.424;2023-04-15T14:03:04;1.25;;;0.90;;
72085;SDS011;64750;52.134;5.424;2023-04-15T14:05:31;1.50;;;0.73;;
72085;SDS011;64750;52.134;5.424;2023-04-15T14:07:58;1.33;;;0.73;;
72085;SDS011;64750;52.134;5.424;2023-04-15T14:10:25;1.17;;;0.50;;
72085;SDS011;64750;52.134;5.424;2023-04-15T14:12:52;1.23;;;0.70;;
72085;SDS011;64750;52.134;5.424;2023-04-15T14:15:18;1.25;;;0.75;;
72085;SDS011;64750;52.134;5.424;2023-04-15T14:17:44;1.10;;;0.60;;
72085;SDS011;64750;52.134;5.424;2023-04-15T14:20:11;3.83;;;0.80;;
72085;SDS011;64750;52.134;5.424;2023-04-15T14:22:40;3.17;;;0.82;;
72085;SDS011;64750;52.134;5.424;2023-04-15T14:25:08;1.10;;;0.90;;
72085;SDS011;64750;52.134;5.424;2023-04-15T14:27:36;4.90;;;1.10;;
72085;SDS011;64750;52.134;5.424;2023-04-15T14:30:03;1.27;;;1.00;;
72085;SDS011;64750;52.134;5.424;2023-04-15T14:32:30;4.55;;;1.50;;
72085;SDS011;64750;52.134;5.424;2023-04-15T14:34:56;5.22;;;1.27;;
72085;SDS011;64750;52.134;5.424;2023-04-15T14:37:23;3.80;;;1.10;;
72085;SDS011;64750;52.134;5.424;2023-04-15T14:39:49;3.45;;;1.13;;
72085;SDS011;64750;52.134;5.424;2023-04-15T14:42:15;2.75;;;1.10;;
72085;SDS011;64750;52.134;5.424;2023-04-15T14:44:42;2.10;;;1.23;;
72085;SDS011;64750;52.134;5.424;2023-04-15T14:47:09;3.22;;;0.80;;
72085;SDS011;64750;52.134;5.424;2023-04-15T14:49:36;3.50;;;0.77;;
72085;SDS011;64750;52.134;5.424;2023-04-15T14:52:02;2.15;;;1.00;;
72085;SDS011;64750;52.134;5.424;2023-04-15T14:54:29;3.22;;;1.42;;
72085;SDS011;64750;52.134;5.424;2023-04-15T14:56:56;2.08;;;0.65;;
72085;SDS011;64750;52.134;5.424;2023-04-15T14:59:22;3.08;;;1.00;;
72085;SDS011;64750;52.134;5.424;2023-04-15T15:01:49;5.77;;;1.07;;
72085;SDS011;64750;52.134;5.424;2023-04-15T15:04:15;6.55;;;0.90;;
72085;SDS011;64750;52.134;5.424;2023-04-15T15:06:42;2.90;;;1.08;;
72085;SDS011;64750;52.134;5.424;2023-04-15T15:09:09;5.75;;;1.67;;
72085;SDS011;64750;52.134;5.424;2023-04-15T15:11:35;2.60;;;0.50;;
72085;SDS011;64750;52.134;5.424;2023-04-15T15:14:01;4.17;;;1.57;;
72085;SDS011;64750;52.134;5.424;2023-04-15T15:16:28;4.22;;;0.70;;
72085;SDS011;64750;52.134;5.424;2023-04-15T15:18:54;4.13;;;1.23;;
72085;SDS011;64750;52.134;5.424;2023-04-15T15:21:21;3.70;;;2.40;;
72085;SDS011;64750;52.134;5.424;2023-04-15T15:23:48;5.35;;;3.17;;
72085;SDS011;64750;52.134;5.424;2023-04-15T15:26:14;4.70;;;1.10;;